Windsor, OH (44099)

4:05 PM EDT on August 24, 2016 (GMT -0400)
Grand Valley | | Change Station

Elev 807 ft 41.55 °N, 80.88 °W | Updated 36 seconds ago

Clear
Clear
87.1 °F
Feels Like 88 °F
N
2.2
Wind Variable Wind from South

Today
High -- | Low -- °F
--% Chance of Precip.
Yesterday
High -- | Low -- °F
Precip. -- in
Pressure 30.10 in
Visibility 10.0 miles
Clouds Clear
Heat Index 88 °F
Dew Point 63 °F
Humidity 45%
Rainfall 0.00 in
Snow Depth Not available.
6:42 AM 8:09 PM
Waning Gibbous, 54% visible
METAR KHZY 241953Z AUTO 20009KT 10SM CLR 28/16 A3012 RMK AO2 SLP192 T02830156
Pressure 30.10 in
Visibility 10.0 miles
Clouds Clear
Heat Index 88 °F
Dew Point 63 °F
Humidity 45%
Rainfall 0.00 in
Snow Depth Not available.
6:42 AM 8:09 PM
Waning Gibbous, 54% visible
METAR KHZY 241953Z AUTO 20009KT 10SM CLR 28/16 A3012 RMK AO2 SLP192 T02830156

10-Day Weather Forecast

Almanac

Astronomy

Aug. 24, 2016 Rise Set
Actual Time
Civil Twilight
Nautical Twilight
Astronomical Twilight
Moon
Length of Visible Light
Length of Day
Tomorrow will be .
, % of the Moon is Illuminated

Today's Extremes

State Highs State Lows

Community

WunderPhotos

Upload Photos

1,934,696 photos uploaded!

WunderBlog® & News

Nearby

Air Quality

  Air Quality AQ Index Pollutant
Not available.

Snow Depth

Station Depth Elevation

Earthquake Activity

City Distance Mag. Time & Date
Minimum magnitude displayed is 2.5.

Coastal Water Temperatures

Place Temperature

Stations

Nearby Weather Stations

Station Location Temp. Windchill Dew Point Humidity Wind Precip. Elev Updated Type
                   

Watches & Warnings

There are currently no watches in effect.